Time,TemperatureF,DewpointF,PressureIn,WindDirection,WindDirectionDegrees,WindSpeedMPH,WindSpeedGustMPH,Humidity,HourlyPrecipIn,Conditions,Clouds,dailyrainin,SoftwareType,DateUTC
2013-09-07 00:00:00,75.7,73.2,29.97,ENE,61,1.0,5.0,92,0.00,,,0.00,WeatherDisplay:10.37,2013-09-07 04:00:00,
2013-09-07 00:10:00,75.8,73.6,29.97,ESE,102,0.0,3.0,93,0.00,,,0.00,WeatherDisplay:10.37,2013-09-07 04:10:00,
2013-09-07 00:20:00,75.8,73.6,29.97,East,84,1.0,3.0,93,0.00,,,0.00,WeatherDisplay:10.37,2013-09-07 04:20:00,
2013-09-07 00:30:00,75.8,73.3,29.97,NE,41,0.0,3.0,92,0.00,,,0.00,WeatherDisplay:10.37,2013-09-07 04:30:00,
2013-09-07 00:40:00,75.8,73.6,29.97,NE,41,0.0,1.0,93,0.00,,,0.00,WeatherDisplay:10.37,2013-09-07 04:40:00,
2013-09-07 00:50:00,75.9,73.7,29.96,NE,41,0.0,2.0,93,0.00,,,0.00,WeatherDisplay:10.37,2013-09-07 04:50:00,
2013-09-07 01:00:00,75.8,73.7,29.95,NE,41,0.0,2.0,93,0.00,,,0.00,WeatherDisplay:10.37,2013-09-07 05:00:00,
2013-09-07 01:10:00,75.8,73.3,29.94,NE,41,0.0,0.0,92,0.00,,,0.00,WeatherDisplay:10.37,2013-09-07 05:10:00,
2013-09-07 01:20:00,76.0,73.8,29.94,NE,41,0.0,2.0,93,0.00,,,0.00,WeatherDisplay:10.37,2013-09-07 05:20:00,
2013-09-07 01:30:00,76.1,73.9,29.94,North,2,0.0,3.0,93,0.00,,,0.00,WeatherDisplay:10.37,2013-09-07 05:30:00,
2013-09-07 01:40:00,76.1,73.9,29.93,North,2,0.0,1.0,93,0.00,,,0.00,WeatherDisplay:10.37,2013-09-07 05:40:00,
2013-09-07 01:50:00,76.2,74.0,29.92,North,2,0.0,0.0,93,0.00,,,0.00,WeatherDisplay:10.37,2013-09-07 05:50:00,
2013-09-07 02:00:00,76.2,74.0,29.94,North,4,1.0,3.0,93,0.00,,,0.00,WeatherDisplay:10.37,2013-09-07 06:00:00,
2013-09-07 02:10:00,76.1,73.9,29.93,NNE,28,0.0,6.0,93,0.00,,,0.00,WeatherDisplay:10.37,2013-09-07 06:10:00,
2013-09-07 02:20:00,76.1,73.9,29.94,NE,34,0.0,2.0,93,0.00,,,0.00,WeatherDisplay:10.37,2013-09-07 06:20:00,
2013-09-07 02:30:00,76.1,73.9,29.94,NE,34,0.0,2.0,93,0.00,,,0.00,WeatherDisplay:10.37,2013-09-07 06:30:00,
2013-09-07 02:40:00,76.1,73.9,29.94,NE,34,0.0,3.0,93,0.00,,,0.00,WeatherDisplay:10.37,2013-09-07 06:40:00,
2013-09-07 02:50:00,76.0,73.8,29.94,NE,34,0.0,3.0,93,0.00,,,0.00,WeatherDisplay:10.37,2013-09-07 06:50:00,
2013-09-07 03:00:00,75.9,73.7,29.94,NE,34,1.0,3.0,93,0.00,,,0.00,WeatherDisplay:10.37,2013-09-07 07:00:00,
2013-09-07 03:10:00,75.6,73.4,29.93,NE,35,1.0,6.0,93,0.00,,,0.00,WeatherDisplay:10.37,2013-09-07 07:10:00,
2013-09-07 03:20:00,75.5,73.3,29.93,NE,43,1.0,5.0,93,0.00,,,0.00,WeatherDisplay:10.37,2013-09-07 07:20:00,
2013-09-07 03:30:00,75.4,73.2,29.93,NNE,14,1.0,5.0,93,0.00,,,0.00,WeatherDisplay:10.37,2013-09-07 07:30:00,
2013-09-07 03:40:00,75.4,73.3,29.93,NNE,31,2.0,5.0,93,0.00,,,0.00,WeatherDisplay:10.37,2013-09-07 07:40:00,
2013-09-07 03:50:00,75.5,73.3,29.93,NNE,32,1.0,5.0,93,0.00,,,0.00,WeatherDisplay:10.37,2013-09-07 07:50:00,
2013-09-07 04:00:00,75.5,73.3,29.93,NNE,27,3.0,8.0,93,0.00,,,0.00,WeatherDisplay:10.37,2013-09-07 08:00:00,
2013-09-07 04:10:00,75.5,73.7,29.93,NNE,24,5.0,9.0,94,0.00,,,0.00,WeatherDisplay:10.37,2013-09-07 08:10:00,
2013-09-07 04:20:00,75.5,73.7,29.93,NNE,18,6.0,12.0,94,0.00,,,0.00,WeatherDisplay:10.37,2013-09-07 08:20:00,
2013-09-07 04:30:00,75.6,73.7,29.92,NNE,24,6.0,12.0,94,0.00,,,0.00,WeatherDisplay:10.37,2013-09-07 08:30:00,
2013-09-07 04:40:00,75.4,73.6,29.92,NNE,20,6.0,12.0,94,0.00,,,0.00,WeatherDisplay:10.37,2013-09-07 08:40:00,
2013-09-07 04:50:00,75.3,73.5,29.92,NNE,26,5.0,12.0,94,0.00,,,0.00,WeatherDisplay:10.37,2013-09-07 08:50:00,
2013-09-07 05:00:00,75.4,73.6,29.92,NNE,25,3.0,8.0,94,0.00,,,0.00,WeatherDisplay:10.37,2013-09-07 09:00:00,
2013-09-07 05:10:00,75.4,73.6,29.92,NNE,20,5.0,9.0,94,0.00,,,0.00,WeatherDisplay:10.37,2013-09-07 09:10:00,
2013-09-07 05:20:00,75.5,73.7,29.92,NNE,31,5.0,12.0,94,0.00,,,0.00,WeatherDisplay:10.37,2013-09-07 09:20:00,
2013-09-07 05:30:00,75.5,73.7,29.92,NNE,21,5.0,12.0,94,0.00,,,0.00,WeatherDisplay:10.37,2013-09-07 09:30:00,
2013-09-07 05:40:00,75.5,73.7,29.91,NE,42,5.0,12.0,94,0.00,,,0.00,WeatherDisplay:10.37,2013-09-07 09:40:00,
2013-09-07 05:50:00,75.6,74.1,29.91,NE,42,3.0,10.0,95,0.00,,,0.00,WeatherDisplay:10.37,2013-09-07 09:50:00,
2013-09-07 06:00:00,75.8,74.3,29.92,NE,39,3.0,9.0,95,0.00,,,0.00,WeatherDisplay:10.37,2013-09-07 10:00:00,
2013-09-07 06:10:00,76.0,74.5,29.92,NE,39,2.0,7.0,95,0.00,,,0.00,WeatherDisplay:10.37,2013-09-07 10:10:00,
2013-09-07 06:20:00,76.1,74.5,29.93,ENE,61,3.0,6.0,95,0.00,,,0.00,WeatherDisplay:10.37,2013-09-07 10:20:00,
2013-09-07 06:30:00,76.2,74.6,29.93,NE,55,3.0,9.0,95,0.00,,,0.00,WeatherDisplay:10.37,2013-09-07 10:30:00,
2013-09-07 06:40:00,76.3,74.8,29.94,ENE,72,2.0,10.0,95,0.00,,,0.00,WeatherDisplay:10.37,2013-09-07 10:40:00,
2013-09-07 06:50:00,76.6,75.0,29.94,ENE,68,3.0,7.0,95,0.00,,,0.00,WeatherDisplay:10.37,2013-09-07 10:50:00,
2013-09-07 07:00:00,76.8,75.2,29.94,East,82,3.0,8.0,95,0.00,,,0.00,WeatherDisplay:10.37,2013-09-07 11:00:00,
2013-09-07 07:10:00,76.8,74.9,29.94,ENE,67,5.0,10.0,94,0.00,,,0.00,WeatherDisplay:10.37,2013-09-07 11:10:00,
2013-09-07 07:20:00,76.9,75.0,29.95,NE,36,2.0,7.0,94,0.00,,,0.00,WeatherDisplay:10.37,2013-09-07 11:20:00,
2013-09-07 07:30:00,76.8,75.0,29.95,NE,37,1.0,7.0,94,0.00,,,0.00,WeatherDisplay:10.37,2013-09-07 11:30:00,
2013-09-07 07:40:00,76.9,75.0,29.95,NE,44,3.0,9.0,94,0.00,,,0.00,WeatherDisplay:10.37,2013-09-07 11:40:00,
2013-09-07 07:50:00,77.1,75.2,29.95,NE,54,3.0,9.0,94,0.00,,,0.00,WeatherDisplay:10.37,2013-09-07 11:50:00,
2013-09-07 08:00:00,77.2,75.3,29.96,NNE,26,2.0,8.0,94,0.00,,,0.00,WeatherDisplay:10.37,2013-09-07 12:00:00,
2013-09-07 08:10:00,77.3,75.1,29.96,NE,53,3.0,7.0,93,0.00,,,0.00,WeatherDisplay:10.37,2013-09-07 12:10:00,
2013-09-07 08:20:00,77.4,75.2,29.96,NE,35,5.0,8.0,93,0.00,,,0.00,WeatherDisplay:10.37,2013-09-07 12:20:00,
2013-09-07 08:30:00,77.4,75.2,29.97,NNE,31,3.0,8.0,93,0.00,,,0.00,WeatherDisplay:10.37,2013-09-07 12:30:00,
2013-09-07 08:40:00,77.5,75.0,29.97,NE,41,3.0,9.0,92,0.00,,,0.00,WeatherDisplay:10.37,2013-09-07 12:40:00,
2013-09-07 08:50:00,77.8,75.6,29.97,NE,37,3.0,6.0,93,0.00,,,0.00,WeatherDisplay:10.37,2013-09-07 12:50:00,
2013-09-07 09:00:00,78.1,75.6,29.97,NNE,29,3.0,7.0,92,0.00,,,0.00,WeatherDisplay:10.37,2013-09-07 13:00:00,
2013-09-07 09:10:00,78.4,75.9,29.97,NE,44,1.0,7.0,92,0.00,,,0.00,WeatherDisplay:10.37,2013-09-07 13:10:00,
2013-09-07 09:20:00,78.8,76.0,29.97,ENE,58,3.0,7.0,91,0.00,,,0.00,WeatherDisplay:10.37,2013-09-07 13:20:00,
2013-09-07 09:30:00,79.5,76.3,29.97,NE,46,1.0,7.0,90,0.00,,,0.00,WeatherDisplay:10.37,2013-09-07 13:30:00,
2013-09-07 09:40:00,80.2,76.3,29.97,NE,51,2.0,8.0,88,0.00,,,0.00,WeatherDisplay:10.37,2013-09-07 13:40:00,
2013-09-07 09:50:00,80.9,76.7,29.97,East,88,2.0,9.0,87,0.00,,,0.00,WeatherDisplay:10.37,2013-09-07 13:50:00,
2013-09-07 10:00:00,81.6,77.0,29.97,East,87,1.0,9.0,86,0.00,,,0.00,WeatherDisplay:10.37,2013-09-07 14:00:00,
2013-09-07 10:10:00,82.5,77.2,29.98,East,87,5.0,9.0,84,0.00,CLR,,0.00,WeatherDisplay:10.37,2013-09-07 14:10:00,
2013-09-07 10:20:00,83.2,77.5,29.98,East,86,1.0,8.0,83,0.00,CLR,,0.00,WeatherDisplay:10.37,2013-09-07 14:20:00,
2013-09-07 10:30:00,84.3,78.2,29.98,ESE,119,1.0,5.0,82,0.00,CLR,,0.00,WeatherDisplay:10.37,2013-09-07 14:30:00,
2013-09-07 10:40:00,84.8,78.0,29.98,SE,128,2.0,6.0,80,0.00,CLR,,0.00,WeatherDisplay:10.37,2013-09-07 14:40:00,
2013-09-07 10:50:00,84.8,77.9,29.98,East,94,2.0,5.0,80,0.00,CLR,,0.00,WeatherDisplay:10.37,2013-09-07 14:50:00,
2013-09-07 11:00:00,84.4,77.5,29.97,NE,50,5.0,8.0,80,0.00,CLR,,0.00,WeatherDisplay:10.37,2013-09-07 15:00:00,
2013-09-07 11:10:00,85.1,78.6,29.98,NE,40,6.0,8.0,81,0.00,CLR,,0.00,WeatherDisplay:10.37,2013-09-07 15:10:00,
2013-09-07 11:20:00,85.5,78.7,29.98,ENE,63,2.0,8.0,80,0.00,CLR,,0.00,WeatherDisplay:10.37,2013-09-07 15:20:00,
2013-09-07 11:30:00,85.4,78.1,29.98,East,100,2.0,8.0,79,0.00,CLR,,0.00,WeatherDisplay:10.37,2013-09-07 15:30:00,
2013-09-07 11:40:00,84.7,77.5,29.98,East,84,1.0,5.0,79,0.00,CLR,,0.00,WeatherDisplay:10.37,2013-09-07 15:40:00,
2013-09-07 11:50:00,84.3,77.8,29.99,East,91,2.0,7.0,81,0.00,CLR,,0.00,WeatherDisplay:10.37,2013-09-07 15:50:00,
2013-09-07 12:00:00,85.2,78.3,29.98,East,92,2.0,6.0,80,0.00,CLR,,0.00,WeatherDisplay:10.37,2013-09-07 16:00:00,
2013-09-07 12:10:00,86.4,78.7,29.98,ESE,116,1.0,6.0,78,0.00,CLR,,0.00,WeatherDisplay:10.37,2013-09-07 16:10:00,
2013-09-07 12:20:00,88.2,78.9,29.98,ESE,119,1.0,6.0,74,0.00,CLR,,0.00,WeatherDisplay:10.37,2013-09-07 16:20:00,
2013-09-07 12:30:00,88.8,79.4,29.98,SSE,150,1.0,5.0,74,0.00,CLR,,0.00,WeatherDisplay:10.37,2013-09-07 16:30:00,
2013-09-07 12:40:00,88.6,78.9,29.98,SE,129,2.0,5.0,73,0.00,CLR,,0.00,WeatherDisplay:10.37,2013-09-07 16:40:00,
2013-09-07 12:50:00,89.9,78.8,29.98,SE,130,1.0,7.0,70,0.00,CLR,,0.00,WeatherDisplay:10.37,2013-09-07 16:50:00,
2013-09-07 13:00:00,89.6,77.6,29.98,SE,129,0.0,6.0,68,0.00,CLR,,0.00,WeatherDisplay:10.37,2013-09-07 17:00:00,
2013-09-07 13:10:00,90.2,78.3,29.97,SSE,150,2.0,4.0,68,0.00,CLR,,0.00,WeatherDisplay:10.37,2013-09-07 17:10:00,
2013-09-07 13:20:00,89.8,78.3,29.98,SE,137,1.0,6.0,69,0.00,CLR,,0.00,WeatherDisplay:10.37,2013-09-07 17:20:00,
2013-09-07 13:30:00,90.0,78.0,29.97,SE,146,0.0,3.0,68,0.00,CLR,,0.00,WeatherDisplay:10.37,2013-09-07 17:30:00,
2013-09-07 13:40:00,90.8,77.8,29.96,SE,145,1.0,4.0,66,0.00,CLR,,0.00,WeatherDisplay:10.37,2013-09-07 17:40:00,
2013-09-07 13:50:00,91.1,78.2,29.96,SSE,159,1.0,4.0,66,0.00,CLR,,0.00,WeatherDisplay:10.37,2013-09-07 17:50:00,
2013-09-07 14:00:00,91.3,77.4,29.96,SSE,162,1.0,5.0,64,0.00,CLR,,0.00,WeatherDisplay:10.37,2013-09-07 18:00:00,
2013-09-07 14:10:00,91.0,77.6,29.95,South,181,1.0,4.0,65,0.00,CLR,,0.00,WeatherDisplay:10.37,2013-09-07 18:10:00,
2013-09-07 14:20:00,91.6,76.2,29.95,SE,135,0.0,5.0,61,0.00,CLR,,0.00,WeatherDisplay:10.37,2013-09-07 18:20:00,
2013-09-07 14:30:00,91.9,77.5,29.94,SE,142,0.0,4.0,63,0.00,CLR,,0.00,WeatherDisplay:10.37,2013-09-07 18:30:00,
2013-09-07 14:40:00,92.2,77.8,29.94,SW,216,2.0,6.0,63,0.00,CLR,,0.00,WeatherDisplay:10.37,2013-09-07 18:40:00,
2013-09-07 14:50:00,91.2,76.8,29.93,WSW,249,7.0,10.0,63,0.00,CLR,,0.00,WeatherDisplay:10.37,2013-09-07 18:50:00,
2013-09-07 15:00:00,89.2,78.6,29.92,West,263,7.0,12.0,71,0.00,CLR,,0.00,WeatherDisplay:10.37,2013-09-07 19:00:00,
2013-09-07 15:10:00,92.0,76.1,29.92,SW,227,2.0,9.0,60,0.00,CLR,,0.00,WeatherDisplay:10.37,2013-09-07 19:10:00,
2013-09-07 15:20:00,93.2,74.6,29.92,WSW,253,8.0,10.0,55,0.00,CLR,,0.00,WeatherDisplay:10.37,2013-09-07 19:20:00,
2013-09-07 15:30:00,93.8,75.1,29.92,WSW,238,6.0,12.0,55,0.00,CLR,,0.00,WeatherDisplay:10.37,2013-09-07 19:30:00,
2013-09-07 15:40:00,91.4,75.5,29.92,WSW,240,5.0,10.0,60,0.00,CLR,,0.00,WeatherDisplay:10.37,2013-09-07 19:40:00,
2013-09-07 15:50:00,89.3,74.5,29.91,WSW,247,2.0,8.0,62,0.00,CLR,,0.00,WeatherDisplay:10.37,2013-09-07 19:50:00,
2013-09-07 16:00:00,89.8,75.6,29.90,WSW,239,3.0,9.0,63,0.00,CLR,,0.00,WeatherDisplay:10.37,2013-09-07 20:00:00,
2013-09-07 16:10:00,90.0,76.2,29.90,West,260,6.0,13.0,64,0.00,CLR,,0.00,WeatherDisplay:10.37,2013-09-07 20:10:00,
2013-09-07 16:20:00,90.5,76.2,29.89,WSW,246,6.0,8.0,63,0.00,CLR,,0.00,WeatherDisplay:10.37,2013-09-07 20:20:00,
2013-09-07 16:30:00,90.8,76.0,29.89,West,263,5.0,8.0,62,0.00,CLR,,0.00,WeatherDisplay:10.37,2013-09-07 20:30:00,
2013-09-07 16:40:00,89.3,76.9,29.89,WSW,255,3.0,7.0,67,0.00,CLR,,0.00,WeatherDisplay:10.37,2013-09-07 20:40:00,
2013-09-07 16:50:00,90.1,75.8,29.89,WSW,248,6.0,8.0,63,0.00,CLR,,0.00,WeatherDisplay:10.37,2013-09-07 20:50:00,
2013-09-07 17:00:00,89.8,76.4,29.89,SW,223,3.0,8.0,65,0.00,CLR,,0.00,WeatherDisplay:10.37,2013-09-07 21:00:00,
2013-09-07 17:10:00,89.5,76.6,29.89,WSW,242,0.0,5.0,66,0.00,CLR,,0.00,WeatherDisplay:10.37,2013-09-07 21:10:00,
2013-09-07 17:20:00,88.7,75.9,29.90,SSE,164,0.0,6.0,66,0.00,CLR,,0.00,WeatherDisplay:10.37,2013-09-07 21:20:00,
2013-09-07 17:30:00,85.9,75.4,29.90,East,98,1.0,7.0,71,0.00,CLR,,0.00,WeatherDisplay:10.37,2013-09-07 21:30:00,
2013-09-07 17:40:00,84.5,74.5,29.90,ESE,108,3.0,12.0,72,0.00,CLR,,0.00,WeatherDisplay:10.37,2013-09-07 21:40:00,
2013-09-07 17:50:00,84.5,74.9,29.91,East,83,5.0,10.0,73,0.00,CLR,,0.00,WeatherDisplay:10.37,2013-09-07 21:50:00,
2013-09-07 18:00:00,82.7,74.0,29.92,East,81,12.0,24.0,75,0.00,CLR,,0.00,WeatherDisplay:10.37,2013-09-07 22:00:00,
2013-09-07 18:10:00,80.3,73.6,29.93,NE,56,12.0,23.0,80,0.00,CLR,,0.00,WeatherDisplay:10.37,2013-09-07 22:10:00,
2013-09-07 18:20:00,76.5,73.0,29.93,NNE,29,12.0,23.0,89,0.22,RA,,0.22,WeatherDisplay:10.37,2013-09-07 22:20:00,
2013-09-07 18:30:00,75.0,72.8,29.94,ENE,73,6.0,20.0,93,0.33,RA,,0.55,WeatherDisplay:10.37,2013-09-07 22:30:00,
2013-09-07 18:40:00,74.5,72.7,29.95,NNE,32,3.0,12.0,94,0.27,RA,,0.82,WeatherDisplay:10.37,2013-09-07 22:40:00,
2013-09-07 18:50:00,74.0,72.5,29.93,ENE,73,3.0,10.0,95,0.30,RA,,1.12,WeatherDisplay:10.37,2013-09-07 22:50:00,
2013-09-07 19:00:00,73.9,72.6,29.92,ENE,73,2.0,6.0,96,0.06,RA,,1.18,WeatherDisplay:10.37,2013-09-07 23:00:00,
2013-09-07 19:10:00,74.4,73.2,29.92,ENE,70,2.0,5.0,96,0.01,RA,,1.19,WeatherDisplay:10.37,2013-09-07 23:10:00,
2013-09-07 19:20:00,74.2,73.0,29.92,NE,41,2.0,7.0,96,0.00,RA,,1.19,WeatherDisplay:10.37,2013-09-07 23:20:00,
2013-09-07 19:30:00,74.3,73.1,29.92,NNE,33,2.0,6.0,96,0.00,RA,,1.19,WeatherDisplay:10.37,2013-09-07 23:30:00,
2013-09-07 19:40:00,74.0,72.8,29.92,NE,35,3.0,8.0,96,0.00,RA,,1.19,WeatherDisplay:10.37,2013-09-07 23:40:00,
2013-09-07 19:50:00,74.2,73.0,29.93,NNE,24,5.0,9.0,96,0.00,RA,,1.19,WeatherDisplay:10.37,2013-09-07 23:50:00,
2013-09-07 20:00:00,74.4,73.2,29.93,NNE,22,2.0,10.0,96,0.00,RA,,1.19,WeatherDisplay:10.37,2013-09-08 00:00:00,
2013-09-07 20:10:00,74.4,73.2,29.93,North,5,3.0,10.0,96,0.00,RA,,1.19,WeatherDisplay:10.37,2013-09-08 00:10:00,
2013-09-07 20:20:00,74.2,73.0,29.94,NNE,24,5.0,8.0,96,0.00,RA,,1.19,WeatherDisplay:10.37,2013-09-08 00:20:00,
2013-09-07 20:30:00,73.9,72.7,29.94,NNE,29,3.0,9.0,96,0.00,RA,,1.19,WeatherDisplay:10.37,2013-09-08 00:30:00,
2013-09-07 20:40:00,73.9,72.6,29.94,North,11,2.0,5.0,96,0.00,RA,,1.19,WeatherDisplay:10.37,2013-09-08 00:40:00,
2013-09-07 20:50:00,73.9,73.0,29.94,North,355,0.0,3.0,97,0.00,RA,,1.19,WeatherDisplay:10.37,2013-09-08 00:50:00,
2013-09-07 21:00:00,74.1,73.2,29.94,North,358,0.0,3.0,97,0.00,RA,,1.19,WeatherDisplay:10.37,2013-09-08 01:00:00,
2013-09-07 21:10:00,74.2,73.3,29.94,North,358,1.0,3.0,97,0.00,RA,,1.19,WeatherDisplay:10.37,2013-09-08 01:10:00,
2013-09-07 21:20:00,74.2,73.3,29.94,NNE,24,1.0,5.0,97,0.00,RA,,1.19,WeatherDisplay:10.37,2013-09-08 01:20:00,
2013-09-07 21:30:00,73.9,72.7,29.93,NE,56,5.0,9.0,96,0.00,RA,,1.19,WeatherDisplay:10.37,2013-09-08 01:30:00,
2013-09-07 21:40:00,73.8,72.9,29.93,NE,41,3.0,8.0,97,0.00,RA,,1.19,WeatherDisplay:10.37,2013-09-08 01:40:00,
2013-09-07 21:50:00,73.7,72.8,29.93,ENE,63,2.0,7.0,97,0.00,RA,,1.19,WeatherDisplay:10.37,2013-09-08 01:50:00,
2013-09-07 22:00:00,73.9,73.0,29.92,East,96,1.0,6.0,97,0.01,RA,,1.20,WeatherDisplay:10.37,2013-09-08 02:00:00,
2013-09-07 22:10:00,74.0,73.1,29.93,NE,53,1.0,4.0,97,0.00,RA,,1.20,WeatherDisplay:10.37,2013-09-08 02:10:00,
2013-09-07 22:20:00,74.0,73.1,29.93,ENE,65,2.0,3.0,97,0.00,RA,,1.20,WeatherDisplay:10.37,2013-09-08 02:20:00,
2013-09-07 22:30:00,74.1,73.2,29.94,ENE,67,1.0,3.0,97,0.00,RA,,1.20,WeatherDisplay:10.37,2013-09-08 02:30:00,
2013-09-07 22:40:00,74.0,73.1,29.94,NE,37,2.0,12.0,97,0.00,RA,,1.20,WeatherDisplay:10.37,2013-09-08 02:40:00,
2013-09-07 22:50:00,74.0,73.1,29.94,NE,39,2.0,8.0,97,0.00,RA,,1.20,WeatherDisplay:10.37,2013-09-08 02:50:00,
2013-09-07 23:00:00,74.1,73.2,29.94,NE,54,1.0,7.0,97,0.00,RA,,1.20,WeatherDisplay:10.37,2013-09-08 03:00:00,
2013-09-07 23:10:00,74.2,73.3,29.93,East,86,1.0,5.0,97,0.00,RA,,1.20,WeatherDisplay:10.37,2013-09-08 03:10:00,
2013-09-07 23:20:00,74.3,73.4,29.94,East,80,1.0,5.0,97,0.00,RA,,1.20,WeatherDisplay:10.37,2013-09-08 03:20:00,
2013-09-07 23:30:00,74.2,73.3,29.94,East,88,1.0,5.0,97,0.00,RA,,1.20,WeatherDisplay:10.37,2013-09-08 03:30:00,
2013-09-07 23:40:00,74.0,73.1,29.93,ESE,108,1.0,5.0,97,0.00,RA,,1.20,WeatherDisplay:10.37,2013-09-08 03:40:00,
2013-09-07 23:50:00,73.8,72.9,29.92,East,90,1.0,5.0,97,0.00,RA,,1.20,WeatherDisplay:10.37,2013-09-08 03:50:00,